Time;durP1;ratioP1;P1;durP2;ratioP2;P2;SDS_P1;SDS_P2;PMS_P1;PMS_P2;Temp;Humidity;BMP_temperature;BMP_pressure;BME280_temperature;BME280_humidity;BME280_pressure;Samples;Min_cycle;Max_cycle;Signal;HPM_P1;HPM_P2
2021/07/14 00:00:11;;;;;;;44.10;27.60;;;;;;;-145.12;100.00;63763.75;345431;28;69042;-64
2021/07/14 00:00:24;;;;;;;42.60;27.42;;;;;;;-145.12;100.00;63763.75;339886;28;138438;-64
2021/07/14 00:00:37;;;;;;;42.70;27.40;;;;;;;-145.12;100.00;63763.75;345319;28;68407;-69
2021/07/14 00:00:50;;;;;;;42.85;26.85;;;;;;;-145.12;100.00;63763.75;345454;28;70004;-64
2021/07/14 00:01:05;;;;;;;42.38;26.60;;;;;;;-145.12;100.00;63763.75;345495;28;70042;-63
2021/07/14 00:01:18;;;;;;;42.75;27.48;;;;;;;-145.12;100.00;63763.75;343940;28;114065;-66
2021/07/14 00:01:32;;;;;;;43.67;28.30;;;;;;;-145.12;100.00;63763.75;345617;28;68730;-64
2021/07/14 00:01:45;;;;;;;44.08;28.42;;;;;;;-145.12;100.00;63763.75;343855;28;114107;-68
2021/07/14 00:01:58;;;;;;;43.40;27.65;;;;;;;-145.12;100.00;63763.75;345375;28;70333;-63
2021/07/14 00:02:12;;;;;;;42.13;27.20;;;;;;;-145.12;100.00;63763.75;345384;28;68469;-66
2021/07/14 00:02:27;;;;;;;43.67;27.65;;;;;;;-145.12;100.00;63763.75;343309;28;138452;-68
2021/07/14 00:02:40;;;;;;;44.97;27.63;;;;;;;-145.12;100.00;63763.75;346016;28;46541;-63
2021/07/14 00:02:54;;;;;;;44.42;27.70;;;;;;;-145.12;100.00;63763.75;345537;28;70026;-65
2021/07/14 00:03:07;;;;;;;42.28;27.48;;;;;;;-145.12;100.00;63763.75;343272;28;91281;-64
2021/07/14 00:03:19;;;;;;;44.47;28.42;;;;;;;-145.12;100.00;63763.75;343710;28;68955;-64
2021/07/14 00:03:32;;;;;;;44.53;28.40;;;;;;;-145.12;100.00;63763.75;344107;28;69004;-74
2021/07/14 00:03:45;;;;;;;39.90;26.48;;;;;;;-145.12;100.00;63763.75;344916;28;45386;-64
2021/07/14 00:04:17;;;;;;;45.55;26.98;;;;;;;-145.12;100.00;63763.75;341237;28;136466;-64
2021/07/14 00:04:30;;;;;;;47.75;28.02;;;;;;;-145.12;100.00;63763.75;343895;28;67868;-74
2021/07/14 00:04:45;;;;;;;46.45;28.73;;;;;;;-145.12;100.00;63763.75;342754;28;115047;-63
2021/07/14 00:04:57;;;;;;;45.60;28.96;;;;;;;-145.12;100.00;63763.75;344871;28;45998;-71
2021/07/14 00:05:13;;;;;;;44.03;28.73;;;;;;;-145.12;100.00;63763.75;345531;28;47028;-63
2021/07/14 00:05:26;;;;;;;43.30;28.13;;;;;;;-145.12;100.00;63763.75;342972;28;138638;-63
2021/07/14 00:05:40;;;;;;;44.45;27.85;;;;;;;-145.12;100.00;63763.75;345428;28;68976;-69
2021/07/14 00:05:53;;;;;;;44.00;27.98;;;;;;;-145.12;100.00;63763.75;344638;28;91919;-65
2021/07/14 00:06:06;;;;;;;42.05;27.83;;;;;;;-145.12;100.00;63763.75;345138;28;70098;-65
2021/07/14 00:06:18;;;;;;;42.83;27.40;;;;;;;-145.12;100.00;63763.75;345300;28;70290;-66
2021/07/14 00:06:31;;;;;;;43.66;27.08;;;;;;;-145.12;100.00;63763.75;346168;28;47419;-63
2021/07/14 00:06:43;;;;;;;45.38;27.50;;;;;;;-145.12;100.00;63763.75;346401;28;46876;-63
2021/07/14 00:06:56;;;;;;;44.10;27.17;;;;;;;-145.12;100.00;63763.75;345397;28;68960;-69
2021/07/14 00:07:10;;;;;;;41.78;26.58;;;;;;;-145.12;100.00;63763.75;345005;28;92958;-64
2021/07/14 00:07:23;;;;;;;42.05;27.02;;;;;;;-145.12;100.00;63763.75;346120;28;68813;-63
2021/07/14 00:07:36;;;;;;;43.45;27.42;;;;;;;-145.12;100.00;63763.75;348099;28;69162;-72
2021/07/14 00:07:49;;;;;;;42.20;27.33;;;;;;;-145.12;100.00;63763.75;348356;28;68975;-63
2021/07/14 00:08:02;;;;;;;41.30;27.23;;;;;;;-145.12;100.00;63763.75;347916;28;68535;-64
2021/07/14 00:08:15;;;;;;;46.40;27.90;;;;;;;-145.12;100.00;63763.75;346588;28;68551;-63
2021/07/14 00:08:28;;;;;;;48.40;28.55;;;;;;;-145.12;100.00;63763.75;346861;28;67780;-72
2021/07/14 00:08:40;;;;;;;48.05;29.10;;;;;;;-145.12;100.00;63763.75;346718;28;67852;-65
2021/07/14 00:08:53;;;;;;;46.03;28.58;;;;;;;-145.12;100.00;63763.75;347624;28;44789;-73
2021/07/14 00:09:07;;;;;;;43.00;27.92;;;;;;;-145.12;100.00;63763.75;346696;28;67849;-63
2021/07/14 00:09:20;;;;;;;40.08;27.50;;;;;;;-145.12;100.00;63763.75;345215;28;114927;-71
2021/07/14 00:09:33;;;;;;;39.88;27.08;;;;;;;-145.12;100.00;63763.75;347567;28;47237;-63
2021/07/14 00:09:46;;;;;;;40.30;26.75;;;;;;;-145.12;100.00;63763.75;345862;28;91564;-74
2021/07/14 00:09:58;;;;;;;40.30;26.83;;;;;;;-145.12;100.00;63763.75;347488;28;44798;-64
2021/07/14 00:10:26;;;;;;;40.75;26.48;;;;;;;-145.12;100.00;63763.75;346487;28;68551;-74
2021/07/14 00:10:39;;;;;;;39.65;26.42;;;;;;;-145.12;100.00;63763.75;345711;28;137064;-63
2021/07/14 00:10:52;;;;;;;40.60;26.98;;;;;;;-145.12;100.00;63763.75;348050;28;67876;-76
2021/07/14 00:11:04;;;;;;;40.28;27.20;;;;;;;-145.12;100.00;63763.75;346803;28;68997;-65
2021/07/14 00:11:17;;;;;;;39.55;26.83;;;;;;;-145.12;100.00;63763.75;347503;28;45134;-63
2021/07/14 00:11:36;;;;;;;41.42;26.73;;;;;;;-145.12;100.00;63763.75;346724;28;68881;-63
2021/07/14 00:12:00;;;;;;;43.67;27.40;;;;;;;-145.12;100.00;63763.75;344244;28;137115;-64
2021/07/14 00:12:14;;;;;;;43.30;27.33;;;;;;;-145.12;100.00;63763.75;343692;28;160820;-63
2021/07/14 00:12:30;;;;;;;39.63;26.77;;;;;;;-145.12;100.00;63763.75;345212;28;114706;-64
2021/07/14 00:14:16;;;;;;;39.05;26.67;;;;;;;-145.12;100.00;63763.75;340074;28;137265;-67
2021/07/14 00:16:59;;;;;;;40.17;26.55;;;;;;;-145.12;100.00;63763.75;339902;28;137249;-63
2021/07/14 00:17:40;;;;;;;40.10;26.02;;;;;;;-145.12;100.00;63763.75;340412;28;138929;-64
2021/07/14 00:22:11;;;;;;;39.65;25.58;;;;;;;-145.12;100.00;63763.75;340295;28;137074;-63
2021/07/14 00:22:24;;;;;;;40.92;25.83;;;;;;;-145.12;100.00;63763.75;342349;28;91199;-76
2021/07/14 00:22:38;;;;;;;44.63;26.38;;;;;;;-145.12;100.00;63763.75;342802;28;68898;-63
2021/07/14 00:22:51;;;;;;;45.08;27.00;;;;;;;-145.12;100.00;63763.75;342155;28;92761;-76
2021/07/14 00:23:04;;;;;;;41.08;26.48;;;;;;;-145.12;100.00;63763.75;341475;28;67876;-63
2021/07/14 00:23:16;;;;;;;40.05;26.17;;;;;;;-145.12;100.00;63763.75;341613;28;70079;-63
2021/07/14 00:23:30;;;;;;;39.83;26.30;;;;;;;-145.12;100.00;63763.75;341535;28;68412;-67
2021/07/14 00:23:44;;;;;;;40.08;26.25;;;;;;;-145.12;100.00;63763.75;340679;28;93156;-61
2021/07/14 00:23:59;;;;;;;41.10;26.42;;;;;;;-145.12;100.00;63763.75;340835;28;93080;-69
2021/07/14 00:24:12;;;;;;;41.22;27.17;;;;;;;-145.12;100.00;63763.75;340013;28;115937;-64
2021/07/14 00:24:25;;;;;;;42.70;27.23;;;;;;;-145.12;100.00;63763.75;340286;28;68909;-63
2021/07/14 00:24:39;;;;;;;44.28;27.68;;;;;;;-145.12;100.00;63763.75;340981;28;45284;-70
2021/07/14 00:24:54;;;;;;;41.78;27.67;;;;;;;-145.12;100.00;63763.75;340257;28;68819;-66
2021/07/14 00:25:11;;;;;;;40.15;26.45;;;;;;;-145.12;100.00;63763.75;338522;28;138243;-63
2021/07/14 00:25:24;;;;;;;40.28;24.38;;;;;;;-145.12;100.00;63763.75;339293;28;138465;-71
2021/07/14 00:25:37;;;;;;;39.15;23.98;;;;;;;-145.12;100.00;63763.75;341516;28;67812;-63
2021/07/14 00:25:50;;;;;;;39.50;25.13;;;;;;;-145.12;100.00;63763.75;340848;28;92000;-69
2021/07/14 00:26:03;;;;;;;38.67;25.08;;;;;;;-145.12;100.00;63763.75;341467;28;68850;-64
2021/07/14 00:26:16;;;;;;;39.60;25.77;;;;;;;-145.12;100.00;63763.75;342398;28;45047;-63
2021/07/14 00:26:28;;;;;;;39.97;26.48;;;;;;;-145.12;100.00;63763.75;342494;28;68414;-64
2021/07/14 00:26:41;;;;;;;39.75;26.70;;;;;;;-145.12;100.00;63763.75;341548;28;66369;-62
2021/07/14 00:26:54;;;;;;;38.35;26.23;;;;;;;-145.12;100.00;63763.75;341370;28;70020;-64
2021/07/14 00:27:09;;;;;;;39.63;24.90;;;;;;;-145.12;100.00;63763.75;341521;28;68356;-75
2021/07/14 00:27:23;;;;;;;40.22;24.92;;;;;;;-145.12;100.00;63763.75;340837;28;92012;-63
2021/07/14 00:27:40;;;;;;;41.05;26.40;;;;;;;-145.12;100.00;63763.75;339900;28;114840;-75
2021/07/14 00:27:53;;;;;;;39.75;26.75;;;;;;;-145.12;100.00;63763.75;339050;28;138784;-63
2021/07/14 00:28:05;;;;;;;39.85;26.75;;;;;;;-145.12;100.00;63763.75;341609;28;68948;-76
2021/07/14 00:28:18;;;;;;;41.10;27.13;;;;;;;-145.12;100.00;63763.75;342348;28;46232;-64
2021/07/14 00:28:33;;;;;;;42.30;27.55;;;;;;;-145.12;100.00;63763.75;341153;28;70356;-71
2021/07/14 00:28:51;;;;;;;41.83;27.17;;;;;;;-145.12;100.00;63763.75;339449;28;137795;-63
2021/07/14 00:29:05;;;;;;;39.92;25.92;;;;;;;-145.12;100.00;63763.75;341799;28;138916;-68
2021/07/14 00:29:18;;;;;;;40.15;26.10;;;;;;;-145.12;100.00;63763.75;342719;28;114481;-63
2021/07/14 00:29:33;;;;;;;41.20;26.58;;;;;;;-145.12;100.00;63763.75;344916;28;45874;-61
2021/07/14 00:29:56;;;;;;;40.38;26.40;;;;;;;-145.12;100.00;63763.75;342415;28;114755;-62
2021/07/14 00:30:15;;;;;;;38.85;25.83;;;;;;;-145.12;100.00;63763.75;341857;28;138384;-72
2021/07/14 00:30:30;;;;;;;40.70;26.65;;;;;;;-145.12;100.00;63763.75;341918;28;138567;-63
2021/07/14 00:30:50;;;;;;;38.50;25.80;;;;;;;-145.12;100.00;63763.75;342543;28;114987;-67
2021/07/14 00:31:02;;;;;;;36.10;21.92;;;;;;;-145.12;100.00;63763.75;341792;28;137317;-64
2021/07/14 00:31:17;;;;;;;39.78;24.33;;;;;;;-145.12;100.00;63763.75;344047;28;68949;-64
2021/07/14 00:31:29;;;;;;;38.63;25.45;;;;;;;-145.12;100.00;63763.75;343569;28;93090;-64
2021/07/14 00:31:42;;;;;;;37.22;25.63;;;;;;;-145.12;100.00;63763.75;342658;28;69339;-62
2021/07/14 00:31:55;;;;;;;40.47;26.20;;;;;;;-145.12;100.00;63763.75;341530;28;68932;-63
2021/07/14 00:32:08;;;;;;;40.10;26.40;;;;;;;-145.12;100.00;63763.75;341355;28;69994;-74
2021/07/14 00:32:22;;;;;;;40.28;26.67;;;;;;;-145.12;100.00;63763.75;342885;28;68901;-63
2021/07/14 00:32:36;;;;;;;41.65;26.90;;;;;;;-145.12;100.00;63763.75;341712;28;93008;-70
2021/07/14 00:32:49;;;;;;;42.30;26.73;;;;;;;-145.12;100.00;63763.75;342225;28;91828;-62
2021/07/14 00:33:03;;;;;;;42.83;25.90;;;;;;;-145.12;100.00;63763.75;342815;28;70233;-63
2021/07/14 00:33:16;;;;;;;40.72;24.68;;;;;;;-145.12;100.00;63763.75;342985;28;68877;-69
2021/07/14 00:33:30;;;;;;;39.15;24.90;;;;;;;-145.12;100.00;63763.75;342878;28;70354;-63
2021/07/14 00:33:43;;;;;;;40.50;26.88;;;;;;;-145.12;100.00;63763.75;341611;28;91871;-68
2021/07/14 00:33:56;;;;;;;40.15;26.75;;;;;;;-145.12;100.00;63763.75;343077;28;68886;-64
2021/07/14 00:34:08;;;;;;;40.13;26.73;;;;;;;-145.12;100.00;63763.75;342794;28;68443;-73
2021/07/14 00:34:21;;;;;;;42.50;27.67;;;;;;;-145.12;100.00;63763.75;343043;28;68270;-65
2021/07/14 00:34:34;;;;;;;44.88;28.90;;;;;;;-145.12;100.00;63763.75;343563;28;46546;-71
2021/07/14 00:34:47;;;;;;;46.25;29.42;;;;;;;-145.12;100.00;63763.75;343102;28;68142;-61
2021/07/14 00:34:59;;;;;;;44.17;28.40;;;;;;;-145.12;100.00;63763.75;342868;28;68906;-68
2021/07/14 00:35:14;;;;;;;42.35;27.27;;;;;;;-145.12;100.00;63763.75;342917;28;68821;-63
2021/07/14 00:35:26;;;;;;;42.45;26.50;;;;;;;-145.12;100.00;63763.75;342113;28;91846;-64
2021/07/14 00:35:39;;;;;;;41.53;26.60;;;;;;;-145.12;100.00;63763.75;342666;28;70116;-76
2021/07/14 00:35:52;;;;;;;42.45;27.20;;;;;;;-145.12;100.00;63763.75;342902;28;68877;-64
2021/07/14 00:36:05;;;;;;;41.83;26.95;;;;;;;-145.12;100.00;63763.75;342671;28;69200;-68
2021/07/14 00:36:17;;;;;;;44.18;27.36;;;;;;;-145.12;100.00;63763.75;345001;28;46805;-63
2021/07/14 00:36:30;;;;;;;46.13;27.60;;;;;;;-145.12;100.00;63763.75;344956;28;46557;-67
2021/07/14 00:36:43;;;;;;;45.28;28.08;;;;;;;-145.12;100.00;63763.75;344165;28;68869;-63
2021/07/14 00:36:55;;;;;;;43.10;27.50;;;;;;;-145.12;100.00;63763.75;344105;28;67802;-63
2021/07/14 00:37:08;;;;;;;41.70;26.63;;;;;;;-145.12;100.00;63763.75;344108;28;69661;-74
2021/07/14 00:37:21;;;;;;;41.53;26.13;;;;;;;-145.12;100.00;63763.75;344261;28;69551;-68
2021/07/14 00:37:35;;;;;;;39.85;25.95;;;;;;;-145.12;100.00;63763.75;344957;28;45480;-64
2021/07/14 00:37:48;;;;;;;39.53;26.20;;;;;;;-145.12;100.00;63763.75;342613;28;114776;-70
2021/07/14 00:38:01;;;;;;;39.63;26.65;;;;;;;-145.12;100.00;63763.75;344177;28;69577;-63
2021/07/14 00:38:16;;;;;;;40.00;26.65;;;;;;;-145.12;100.00;63763.75;342900;28;114974;-64
2021/07/14 00:38:28;;;;;;;41.08;26.88;;;;;;;-145.12;100.00;63763.75;344995;28;45964;-70
2021/07/14 00:38:41;;;;;;;41.85;26.98;;;;;;;-145.12;100.00;63763.75;343967;28;68597;-62
2021/07/14 00:38:54;;;;;;;40.47;26.50;;;;;;;-145.12;100.00;63763.75;342988;28;68923;-63
2021/07/14 00:39:06;;;;;;;38.10;26.05;;;;;;;-145.12;100.00;63763.75;342852;28;70107;-62
2021/07/14 00:39:19;;;;;;;39.25;26.45;;;;;;;-145.12;100.00;63763.75;342571;28;44845;-64
2021/07/14 00:39:32;;;;;;;42.70;26.85;;;;;;;-145.12;100.00;63763.75;342343;28;67816;-63
2021/07/14 00:39:46;;;;;;;42.75;26.77;;;;;;;-145.12;100.00;63763.75;342903;28;68856;-62
2021/07/14 00:39:59;;;;;;;40.15;26.02;;;;;;;-145.12;100.00;63763.75;341260;28;116226;-62
2021/07/14 00:40:12;;;;;;;38.70;25.85;;;;;;;-145.12;100.00;63763.75;343571;28;46965;-62
2021/07/14 00:40:25;;;;;;;38.85;26.00;;;;;;;-145.12;100.00;63763.75;342026;28;90803;-62
2021/07/14 00:40:38;;;;;;;40.65;26.17;;;;;;;-145.12;100.00;63763.75;342878;28;68370;-61
2021/07/14 00:40:51;;;;;;;40.42;25.65;;;;;;;-145.12;100.00;63763.75;343170;28;70051;-62
2021/07/14 00:41:05;;;;;;;39.15;25.33;;;;;;;-145.12;100.00;63763.75;344935;28;45369;-64
2021/07/14 00:41:18;;;;;;;37.78;25.33;;;;;;;-145.12;100.00;63763.75;342749;28;114833;-62
2021/07/14 00:41:30;;;;;;;38.05;25.88;;;;;;;-145.12;100.00;63763.75;344139;28;68910;-62
2021/07/14 00:41:43;;;;;;;38.95;25.83;;;;;;;-145.12;100.00;63763.75;343712;28;46645;-65
2021/07/14 00:41:56;;;;;;;39.20;26.08;;;;;;;-145.12;100.00;63763.75;342886;28;68878;-72
2021/07/14 00:42:10;;;;;;;40.03;26.27;;;;;;;-145.12;100.00;63763.75;342710;28;70304;-62
2021/07/14 00:42:24;;;;;;;39.40;25.63;;;;;;;-145.12;100.00;63763.75;342078;28;91945;-63
2021/07/14 00:42:38;;;;;;;40.92;25.46;;;;;;;-145.12;100.00;63763.75;339768;28;115911;-63
2021/07/14 00:42:50;;;;;;;42.08;25.73;;;;;;;-145.12;100.00;63763.75;341697;28;67850;-62
2021/07/14 00:43:03;;;;;;;41.75;25.73;;;;;;;-145.12;100.00;63763.75;341522;28;68345;-62
2021/07/14 00:43:16;;;;;;;40.47;25.23;;;;;;;-145.12;100.00;63763.75;341506;28;69980;-64
2021/07/14 00:43:29;;;;;;;38.20;24.90;;;;;;;-145.12;100.00;63763.75;341553;28;70399;-62
2021/07/14 00:43:41;;;;;;;40.50;25.33;;;;;;;-145.12;100.00;63763.75;342148;28;45555;-62
2021/07/14 00:43:54;;;;;;;39.13;25.48;;;;;;;-145.12;100.00;63763.75;342754;28;70066;-62
2021/07/14 00:44:07;;;;;;;35.00;24.83;;;;;;;-145.12;100.00;63763.75;342967;28;68805;-62
2021/07/14 00:44:19;;;;;;;36.85;24.63;;;;;;;-145.12;100.00;63763.75;343397;28;45878;-63
2021/07/14 00:44:32;;;;;;;41.78;25.40;;;;;;;-145.12;100.00;63763.75;342828;28;67884;-64
2021/07/14 00:44:45;;;;;;;41.83;25.52;;;;;;;-145.12;100.00;63763.75;343237;28;91988;-64
2021/07/14 00:44:59;;;;;;;38.28;25.33;;;;;;;-145.12;100.00;63763.75;344119;28;45666;-64
2021/07/14 00:45:14;;;;;;;40.47;25.15;;;;;;;-145.12;100.00;63763.75;342516;28;115945;-65
2021/07/14 00:45:27;;;;;;;39.92;24.25;;;;;;;-145.12;100.00;63763.75;343440;28;91731;-64
2021/07/14 00:45:40;;;;;;;39.33;24.15;;;;;;;-145.12;100.00;63763.75;344233;28;68817;-72
2021/07/14 00:45:52;;;;;;;38.38;24.63;;;;;;;-145.12;100.00;63763.75;344227;28;69959;-62
2021/07/14 00:46:18;;;;;;;39.88;25.42;;;;;;;-145.12;100.00;63763.75;344243;28;68447;-61
2021/07/14 00:46:32;;;;;;;41.20;25.17;;;;;;;-145.12;100.00;63763.75;341896;28;137140;-62
2021/07/14 00:46:48;;;;;;;41.65;23.23;;;;;;;-145.12;100.00;63763.75;341622;28;137767;-62
2021/07/14 00:47:02;;;;;;;41.75;23.95;;;;;;;-145.12;100.00;63763.75;343498;28;92556;-63
2021/07/14 00:47:25;;;;;;;41.67;26.20;;;;;;;-145.12;100.00;63763.75;340576;28;91826;-63
2021/07/14 00:47:43;;;;;;;39.47;26.27;;;;;;;-145.12;100.00;63763.75;340400;28;138146;-62
2021/07/14 00:47:58;;;;;;;41.45;27.00;;;;;;;-145.12;100.00;63763.75;340533;28;137424;-63
2021/07/14 00:48:12;;;;;;;41.03;27.05;;;;;;;-145.12;100.00;63763.75;341161;28;114757;-62
2021/07/14 00:48:26;;;;;;;41.03;27.23;;;;;;;-145.12;100.00;63763.75;341277;28;114837;-62
2021/07/14 00:48:39;;;;;;;42.15;26.98;;;;;;;-145.12;100.00;63763.75;341848;28;93499;-62
2021/07/14 00:48:55;;;;;;;43.00;26.92;;;;;;;-145.12;100.00;63763.75;343686;28;45557;-63
2021/07/14 00:49:10;;;;;;;41.78;26.67;;;;;;;-145.12;100.00;63763.75;340271;28;136952;-64
2021/07/14 00:49:22;;;;;;;41.38;26.27;;;;;;;-145.12;100.00;63763.75;342111;28;91897;-63
2021/07/14 00:49:35;;;;;;;42.22;26.40;;;;;;;-145.12;100.00;63763.75;342593;28;70179;-62
2021/07/14 00:49:48;;;;;;;41.80;26.90;;;;;;;-145.12;100.00;63763.75;341614;28;67819;-63
2021/07/14 00:50:02;;;;;;;41.55;27.02;;;;;;;-145.12;100.00;63763.75;343587;28;70473;-66
2021/07/14 00:50:15;;;;;;;40.03;27.13;;;;;;;-145.12;100.00;63763.75;340862;28;91923;-64
2021/07/14 00:50:28;;;;;;;38.78;25.15;;;;;;;-145.12;100.00;63763.75;341624;28;68855;-64
2021/07/14 00:50:41;;;;;;;38.65;25.42;;;;;;;-145.12;100.00;63763.75;340291;28;68815;-61
2021/07/14 00:50:54;;;;;;;40.53;27.02;;;;;;;-145.12;100.00;63763.75;340379;28;68481;-62
2021/07/14 00:51:07;;;;;;;41.25;26.80;;;;;;;-145.12;100.00;63763.75;340252;28;68335;-63
2021/07/14 00:51:20;;;;;;;40.55;26.70;;;;;;;-145.12;100.00;63763.75;340408;28;70025;-66
2021/07/14 00:51:33;;;;;;;40.75;25.33;;;;;;;-145.12;100.00;63763.75;339407;28;91441;-62
2021/07/14 00:51:46;;;;;;;39.80;24.52;;;;;;;-145.12;100.00;63763.75;340972;28;45595;-64
2021/07/14 00:51:59;;;;;;;39.44;25.56;;;;;;;-145.12;100.00;63763.75;341109;28;46798;-65
2021/07/14 00:52:12;;;;;;;41.45;26.83;;;;;;;-145.12;100.00;63763.75;340086;28;68459;-63
2021/07/14 00:52:25;;;;;;;43.95;28.23;;;;;;;-145.12;100.00;63763.75;340046;28;68435;-65
2021/07/14 00:52:38;;;;;;;42.70;27.98;;;;;;;-145.12;100.00;63763.75;340227;28;68899;-63
2021/07/14 00:52:50;;;;;;;41.38;27.12;;;;;;;-145.12;100.00;63763.75;342253;28;45566;-64
2021/07/14 00:53:06;;;;;;;40.60;26.58;;;;;;;-145.12;100.00;63763.75;342390;28;44950;-63
2021/07/14 00:53:19;;;;;;;42.05;27.33;;;;;;;-145.12;100.00;63763.75;339381;28;137876;-62
2021/07/14 00:53:32;;;;;;;41.40;27.70;;;;;;;-145.12;100.00;63763.75;341368;28;69985;-67
2021/07/14 00:53:45;;;;;;;41.45;27.98;;;;;;;-145.12;100.00;63763.75;343581;28;69404;-61
2021/07/14 00:53:58;;;;;;;42.67;28.23;;;;;;;-145.12;100.00;63763.75;345631;28;70041;-63
2021/07/14 00:54:11;;;;;;;42.08;27.58;;;;;;;-145.12;100.00;63763.75;344741;28;91788;-62
2021/07/14 00:54:24;;;;;;;40.88;27.00;;;;;;;-145.12;100.00;63763.75;345564;28;68985;-62
2021/07/14 00:54:37;;;;;;;40.40;27.02;;;;;;;-145.12;100.00;63763.75;345734;28;68933;-62
2021/07/14 00:54:51;;;;;;;40.08;26.98;;;;;;;-145.12;100.00;63763.75;345625;28;68624;-63
2021/07/14 00:55:04;;;;;;;41.60;27.55;;;;;;;-145.12;100.00;63763.75;344849;28;91825;-62
2021/07/14 00:55:17;;;;;;;42.05;27.60;;;;;;;-145.12;100.00;63763.75;345499;28;69917;-63
2021/07/14 00:55:30;;;;;;;41.10;27.02;;;;;;;-145.12;100.00;63763.75;345816;28;68345;-62
2021/07/14 00:55:42;;;;;;;38.90;25.24;;;;;;;-145.12;100.00;63763.75;347699;28;46075;-63
2021/07/14 00:55:55;;;;;;;39.55;24.42;;;;;;;-145.12;100.00;63763.75;347682;28;47141;-64
2021/07/14 00:56:08;;;;;;;40.20;24.13;;;;;;;-145.12;100.00;63763.75;346998;28;67878;-62
2021/07/14 00:56:21;;;;;;;37.80;23.42;;;;;;;-145.12;100.00;63763.75;346815;28;69918;-63
2021/07/14 00:56:34;;;;;;;36.83;22.38;;;;;;;-145.12;100.00;63763.75;346831;28;67951;-62
2021/07/14 00:56:47;;;;;;;39.35;22.98;;;;;;;-145.12;100.00;63763.75;346991;28;69079;-62
2021/07/14 00:57:01;;;;;;;40.72;24.23;;;;;;;-145.12;100.00;63763.75;346142;28;92934;-63
2021/07/14 00:57:18;;;;;;;40.25;25.08;;;;;;;-145.12;100.00;63763.75;346829;28;69414;-62
2021/07/14 00:57:32;;;;;;;38.85;26.05;;;;;;;-145.12;100.00;63763.75;344344;28;138132;-62
2021/07/14 00:57:44;;;;;;;39.88;26.52;;;;;;;-145.12;100.00;63763.75;346427;28;70044;-63
2021/07/14 00:57:57;;;;;;;39.75;26.80;;;;;;;-145.12;100.00;63763.75;345757;28;69669;-62
2021/07/14 00:58:10;;;;;;;39.17;26.95;;;;;;;-145.12;100.00;63763.75;345530;28;69057;-62
2021/07/14 00:58:23;;;;;;;38.58;26.75;;;;;;;-145.12;100.00;63763.75;345716;28;68830;-62
2021/07/14 00:58:36;;;;;;;38.58;26.15;;;;;;;-145.12;100.00;63763.75;345735;28;68884;-63
2021/07/14 00:58:48;;;;;;;39.70;26.23;;;;;;;-145.12;100.00;63763.75;345819;28;67736;-62
2021/07/14 00:59:01;;;;;;;40.72;25.80;;;;;;;-145.12;100.00;63763.75;346489;28;45246;-62
2021/07/14 00:59:14;;;;;;;40.72;25.77;;;;;;;-145.12;100.00;63763.75;345718;28;69054;-62
2021/07/14 00:59:27;;;;;;;42.00;26.35;;;;;;;-145.12;100.00;63763.75;345720;28;68374;-62
2021/07/14 00:59:39;;;;;;;41.00;26.92;;;;;;;-145.12;100.00;63763.75;345606;28;68925;-62
2021/07/14 00:59:52;;;;;;;38.58;26.60;;;;;;;-145.12;100.00;63763.75;345555;28;69012;-62
2021/07/14 01:00:07;;;;;;;40.25;25.98;;;;;;;-145.12;100.00;63763.75;346261;28;45515;-62
2021/07/14 01:00:22;;;;;;;41.00;25.67;;;;;;;-145.12;100.00;63763.75;343165;28;138634;-63
2021/07/14 01:00:34;;;;;;;39.38;25.98;;;;;;;-145.12;100.00;63763.75;347020;28;46126;-61
2021/07/14 01:00:48;;;;;;;42.90;27.25;;;;;;;-145.12;100.00;63763.75;347561;28;69568;-61
2021/07/14 01:01:03;;;;;;;41.97;27.00;;;;;;;-145.12;100.00;63763.75;346057;28;90696;-63
2021/07/14 01:01:15;;;;;;;41.85;26.40;;;;;;;-145.12;100.00;63763.75;345409;28;114973;-61
2021/07/14 01:01:29;;;;;;;43.17;26.10;;;;;;;-145.12;100.00;63763.75;346153;28;91924;-63
2021/07/14 01:01:46;;;;;;;41.67;25.58;;;;;;;-145.12;100.00;63763.75;347030;28;68297;-62
2021/07/14 01:01:59;;;;;;;39.78;25.80;;;;;;;-145.12;100.00;63763.75;344778;28;137642;-62
2021/07/14 01:02:13;;;;;;;39.15;25.35;;;;;;;-145.12;100.00;63763.75;346932;28;70464;-62
2021/07/14 01:02:26;;;;;;;38.65;24.80;;;;;;;-145.12;100.00;63763.75;346198;28;93226;-65
2021/07/14 01:02:40;;;;;;;35.80;23.52;;;;;;;-145.12;100.00;63763.75;346047;28;91921;-62
2021/07/14 01:02:52;;;;;;;35.63;23.50;;;;;;;-145.12;100.00;63763.75;346951;28;68406;-62
2021/07/14 01:03:05;;;;;;;36.72;24.02;;;;;;;-145.12;100.00;63763.75;347185;28;70146;-66
2021/07/14 01:03:25;;;;;;;35.83;23.75;;;;;;;-145.12;100.00;63763.75;347225;28;70196;-68
2021/07/14 01:03:45;;;;;;;36.70;23.23;;;;;;;-145.12;100.00;63763.75;344694;28;138605;-62
2021/07/14 01:04:17;;;;;;;37.47;23.70;;;;;;;-145.12;100.00;63763.75;343954;28;160136;-62
2021/07/14 01:04:31;;;;;;;34.10;23.27;;;;;;;-145.12;100.00;63763.75;344828;28;137273;-65
2021/07/14 01:04:49;;;;;;;32.97;23.40;;;;;;;-145.12;100.00;63763.75;346361;28;92456;-62
2021/07/14 01:05:20;;;;;;;33.95;24.10;;;;;;;-145.12;100.00;63763.75;344652;28;137514;-64
2021/07/14 01:05:38;;;;;;;35.00;23.50;;;;;;;-145.12;100.00;63763.75;344804;28;137178;-62
2021/07/14 01:05:54;;;;;;;36.00;23.80;;;;;;;-145.12;100.00;63763.75;344700;28;138743;-68
2021/07/14 01:06:16;;;;;;;35.63;23.80;;;;;;;-145.12;100.00;63763.75;344647;28;138923;-64
2021/07/14 01:06:53;;;;;;;34.13;23.48;;;;;;;-145.12;100.00;63763.75;344734;28;138408;-71
2021/07/14 01:07:08;;;;;;;32.22;22.67;;;;;;;-145.12;100.00;63763.75;341612;28;137181;-62
2021/07/14 01:07:29;;;;;;;31.05;22.42;;;;;;;-145.12;100.00;63763.75;343840;28;115496;-61
2021/07/14 01:08:03;;;;;;;32.20;23.65;;;;;;;-145.12;100.00;63763.75;344530;28;137164;-62
2021/07/14 01:08:30;;;;;;;34.22;23.40;;;;;;;-145.12;100.00;63763.75;344732;28;136409;-62
2021/07/14 01:08:50;;;;;;;32.08;22.80;;;;;;;-145.12;100.00;63763.75;344565;28;136416;-62
2021/07/14 01:09:08;;;;;;;34.25;24.08;;;;;;;-145.12;100.00;63763.75;344706;28;137386;-62
2021/07/14 01:09:56;;;;;;;34.45;23.75;;;;;;;-145.12;100.00;63763.75;344662;28;138412;-63
2021/07/14 01:10:32;;;;;;;34.15;23.58;;;;;;;-145.12;100.00;63763.75;343750;28;160174;-63
2021/07/14 01:10:51;;;;;;;35.65;21.75;;;;;;;-145.12;100.00;63763.75;344757;28;137123;-62
2021/07/14 01:11:09;;;;;;;35.88;22.98;;;;;;;-145.12;100.00;63763.75;343257;28;137598;-69
2021/07/14 01:11:25;;;;;;;32.63;23.05;;;;;;;-145.12;100.00;63763.75;345609;28;137513;-67
2021/07/14 01:11:40;;;;;;;34.30;22.85;;;;;;;-145.12;100.00;63763.75;344607;28;136976;-69
2021/07/14 01:12:00;;;;;;;35.53;23.00;;;;;;;-145.12;100.00;63763.75;345481;28;114877;-62
2021/07/14 01:12:23;;;;;;;32.47;22.52;;;;;;;-145.12;100.00;63763.75;344461;28;137593;-63
2021/07/14 01:12:40;;;;;;;31.70;21.58;;;;;;;-145.12;100.00;63763.75;343792;28;160381;-68
2021/07/14 01:13:21;;;;;;;31.38;21.58;;;;;;;-145.12;100.00;63763.75;344909;28;137783;-66
2021/07/14 01:13:49;;;;;;;32.78;22.50;;;;;;;-145.12;100.00;63763.75;344541;28;137018;-66
2021/07/14 01:14:21;;;;;;;31.35;21.88;;;;;;;-145.12;100.00;63763.75;344737;28;137317;-69
2021/07/14 01:14:52;;;;;;;29.38;20.95;;;;;;;-145.12;100.00;63763.75;343179;28;137044;-63
2021/07/14 01:15:12;;;;;;;32.00;21.33;;;;;;;-145.12;100.00;63763.75;343156;28;136372;-66
2021/07/14 01:15:29;;;;;;;34.83;22.17;;;;;;;-145.12;100.00;63763.75;344623;28;138576;-64
2021/07/14 01:16:02;;;;;;;33.35;22.45;;;;;;;-145.12;100.00;63763.75;344309;28;138704;-67